createdAt,value
2023-03-23T16:02:05.129Z,2.20
2023-03-23T16:07:13.919Z,1.70
2023-03-23T16:12:18.116Z,1.90
2023-03-23T16:17:22.936Z,1.77
2023-03-23T16:22:28.073Z,2.80
2023-03-23T16:27:31.951Z,2.15
2023-03-23T16:37:40.450Z,2.17
2023-03-23T16:42:44.429Z,2.08
2023-03-23T16:47:48.890Z,2.30
2023-03-23T16:52:54.025Z,2.33
2023-03-23T16:58:13.013Z,2.70
2023-03-23T17:03:20.811Z,2.90
2023-03-23T17:08:25.888Z,3.03
2023-03-23T17:13:29.618Z,3.08
2023-03-23T17:18:33.447Z,3.20
2023-03-23T17:23:38.554Z,3.03
2023-03-23T17:28:42.257Z,2.67
2023-03-23T17:33:46.029Z,2.58
2023-03-23T17:38:51.452Z,2.80
2023-03-23T17:43:55.311Z,4.30
2023-03-23T17:48:59.211Z,3.83
2023-03-23T17:54:04.270Z,3.45
2023-03-23T17:59:08.270Z,3.12
2023-03-23T18:04:12.040Z,2.80
2023-03-23T18:09:17.143Z,2.65
2023-03-23T18:14:21.922Z,3.28
2023-03-23T18:19:25.940Z,3.80
2023-03-23T18:24:30.990Z,3.35
2023-03-23T18:29:34.970Z,3.87
2023-03-23T18:34:41.673Z,3.22
2023-03-23T18:39:46.882Z,3.47
2023-03-23T18:44:50.609Z,2.92
2023-03-23T18:49:55.998Z,3.03
2023-03-23T18:55:01.536Z,3.37
2023-03-23T19:00:06.054Z,3.25
2023-03-23T19:05:11.096Z,3.62
2023-03-23T19:10:17.219Z,3.37
2023-03-23T19:15:21.427Z,3.47
2023-03-23T19:20:57.341Z,3.55
2023-03-23T19:25:53.393Z,2.90
2023-03-23T19:30:59.022Z,3.90
2023-03-23T19:36:09.996Z,3.42
2023-03-23T19:41:19.093Z,4.18
2023-03-23T19:46:23.704Z,3.97
2023-03-23T19:51:28.611Z,3.62
2023-03-23T19:56:35.051Z,3.75
2023-03-23T20:01:39.316Z,3.45
2023-03-23T20:06:43.558Z,3.72
2023-03-23T20:11:50.226Z,3.53
2023-03-23T20:16:54.133Z,3.58
2023-03-23T20:21:57.980Z,3.60
2023-03-23T20:27:04.045Z,4.18
2023-03-23T20:32:08.481Z,3.58
2023-03-23T20:37:16.144Z,4.65
2023-03-23T20:42:21.519Z,3.30
2023-03-23T20:47:25.303Z,4.00
2023-03-23T20:52:29.180Z,3.45
2023-03-23T20:57:34.547Z,3.33
2023-03-23T21:02:39.371Z,3.45
2023-03-23T21:07:43.741Z,2.40
2023-03-23T21:12:48.873Z,3.15
2023-03-23T21:17:52.933Z,3.72
2023-03-23T21:22:56.957Z,3.20
2023-03-23T21:28:02.891Z,3.30
2023-03-23T21:33:08.340Z,2.78
2023-03-23T21:38:14.290Z,3.00
2023-03-23T21:43:19.724Z,3.20
2023-03-23T21:48:24.085Z,2.65
2023-03-23T21:53:30.933Z,2.90
2023-03-23T21:58:36.312Z,3.40
2023-03-23T22:03:41.052Z,2.60
2023-03-23T22:08:47.106Z,3.05
2023-03-23T22:13:53.784Z,2.45
2023-03-23T22:19:00.363Z,2.55
2023-03-23T22:24:04.924Z,2.90
2023-03-23T22:29:11.273Z,2.30
2023-03-23T22:34:15.728Z,3.12
2023-03-23T22:39:19.587Z,2.65
2023-03-23T22:44:24.772Z,3.17
2023-03-23T22:49:28.584Z,2.70
2023-03-23T22:54:32.654Z,2.55
2023-03-23T22:59:37.843Z,2.90
2023-03-23T23:04:42.834Z,2.85
2023-03-23T23:09:47.279Z,2.90
2023-03-23T23:14:52.447Z,3.10
2023-03-23T23:19:57.479Z,2.78
2023-03-23T23:25:02.134Z,2.92
2023-03-23T23:30:08.775Z,2.10
2023-03-23T23:35:14.248Z,2.67
2023-03-23T23:40:19.408Z,2.78
2023-03-23T23:45:24.577Z,2.70
2023-03-23T23:50:28.381Z,2.25
2023-03-23T23:55:32.426Z,2.70
